createdAt,value
2023-04-25T00:00:19.717Z,47.4
2023-04-25T00:05:19.729Z,47.2
2023-04-25T00:10:19.658Z,47.3
2023-04-25T00:15:16.591Z,47.2
2023-04-25T00:20:19.691Z,47.2
2023-04-25T00:25:19.679Z,46.9
2023-04-25T00:30:19.598Z,46.8
2023-04-25T00:35:19.664Z,46.7
2023-04-25T00:40:19.687Z,46.7
2023-04-25T00:45:19.711Z,46.6
2023-04-25T00:50:19.650Z,46.6
2023-04-25T00:55:19.746Z,46.5
2023-04-25T01:00:19.702Z,46.3
2023-04-25T01:05:16.677Z,46.3
2023-04-25T01:10:16.542Z,46.2
2023-04-25T01:15:19.829Z,46.0
2023-04-25T01:20:19.710Z,45.9
2023-04-25T01:25:19.797Z,45.7
2023-04-25T01:30:19.723Z,45.6
2023-04-25T01:35:19.742Z,45.6
2023-04-25T01:40:19.808Z,45.4
2023-04-25T01:45:19.810Z,45.3
2023-04-25T01:50:19.803Z,45.3
2023-04-25T01:55:19.857Z,45.3
2023-04-25T02:00:17.001Z,45.2
2023-04-25T02:05:16.721Z,45.2
2023-04-25T02:10:19.798Z,45.2
2023-04-25T02:15:19.852Z,45.0
2023-04-25T02:20:19.785Z,45.0
2023-04-25T02:25:19.857Z,45.1
2023-04-25T02:30:19.830Z,45.1
2023-04-25T02:35:19.866Z,45.1
2023-04-25T02:40:19.786Z,45.1
2023-04-25T02:45:19.913Z,45.2
2023-04-25T02:50:19.809Z,44.9
2023-04-25T02:55:16.819Z,45.0
2023-04-25T03:00:16.911Z,45.1
2023-04-25T03:05:19.992Z,45.1
2023-04-25T03:10:19.918Z,45.1
2023-04-25T03:15:19.918Z,45.0
2023-04-25T03:20:19.928Z,44.9
2023-04-25T03:25:19.816Z,44.7
2023-04-25T03:30:19.897Z,44.8
2023-04-25T03:35:19.922Z,44.6
2023-04-25T03:40:19.930Z,44.5
2023-04-25T03:45:20.168Z,44.6
2023-04-25T03:50:16.870Z,44.5
2023-04-25T03:55:16.998Z,44.5
2023-04-25T04:00:16.185Z,44.6
2023-04-25T04:05:16.217Z,44.5
2023-04-25T04:10:19.280Z,44.7
2023-04-25T04:15:19.296Z,44.6
2023-04-25T04:20:19.264Z,44.7
2023-04-25T04:25:19.245Z,44.7
2023-04-25T04:30:19.221Z,44.7
2023-04-25T04:35:19.266Z,44.6
2023-04-25T04:40:19.318Z,44.7
2023-04-25T04:45:19.267Z,44.7
2023-04-25T04:50:19.334Z,44.9
2023-04-25T04:55:16.292Z,45.0
2023-04-25T05:00:16.184Z,45.2
2023-04-25T05:05:19.383Z,45.1
2023-04-25T05:10:19.293Z,45.1
2023-04-25T05:15:19.349Z,45.2
2023-04-25T05:20:19.391Z,45.2
2023-04-25T05:25:19.496Z,45.3
2023-04-25T05:30:19.338Z,45.3
2023-04-25T05:35:19.281Z,45.3
2023-04-25T05:40:19.389Z,45.4
2023-04-25T05:45:19.468Z,45.4
2023-04-25T05:50:16.235Z,45.4
2023-04-25T05:55:16.320Z,45.4
2023-04-25T06:00:19.404Z,45.4
2023-04-25T06:05:19.513Z,45.3
2023-04-25T06:10:19.408Z,45.4
2023-04-25T06:15:28.828Z,45.3
2023-04-25T06:20:19.388Z,45.2
2023-04-25T06:25:19.541Z,45.2
2023-04-25T06:30:19.497Z,45.1
2023-04-25T06:35:19.648Z,45.1
2023-04-25T06:40:19.406Z,44.9
2023-04-25T06:45:16.346Z,44.9
2023-04-25T06:50:19.483Z,44.9
2023-04-25T06:55:19.504Z,45.0
2023-04-25T07:00:19.480Z,45.0
2023-04-25T07:05:19.557Z,44.9
2023-04-25T07:10:19.490Z,44.8
2023-04-25T07:15:19.475Z,44.7
2023-04-25T07:20:19.457Z,44.7
2023-04-25T07:25:19.499Z,44.7
2023-04-25T07:30:19.570Z,44.7
2023-04-25T07:35:16.480Z,44.8
2023-04-25T07:40:16.433Z,45.0
2023-04-25T07:45:19.759Z,45.2
2023-04-25T07:50:19.526Z,45.2
2023-04-25T07:55:19.557Z,45.1
2023-04-25T08:00:19.690Z,44.9
2023-04-25T08:05:22.442Z,44.9
2023-04-25T08:10:19.497Z,44.9
2023-04-25T08:15:19.529Z,44.8
2023-04-25T08:20:19.636Z,44.7
2023-04-25T08:25:19.776Z,44.3
2023-04-25T08:30:16.548Z,44.0
2023-04-25T08:35:16.573Z,43.9
2023-04-25T08:40:19.622Z,43.8
2023-04-25T08:45:19.727Z,43.6
2023-04-25T08:50:19.869Z,43.5
2023-04-25T08:55:19.630Z,43.5
2023-04-25T09:00:19.633Z,43.6
2023-04-25T09:05:21.770Z,43.6
2023-04-25T09:10:20.018Z,43.8
2023-04-25T09:15:20.719Z,43.9
2023-04-25T09:20:19.732Z,44.1
2023-04-25T09:25:16.634Z,44.2
2023-04-25T09:30:19.808Z,44.3
2023-04-25T09:35:19.798Z,44.1
2023-04-25T09:40:19.840Z,44.1
2023-04-25T09:45:19.723Z,44.1
2023-04-25T09:50:19.733Z,44.2
2023-04-25T09:55:19.839Z,44.1
2023-04-25T10:00:19.841Z,44.0
2023-04-25T10:05:19.922Z,43.9
2023-04-25T10:10:19.782Z,43.9
2023-04-25T10:15:16.857Z,43.7
2023-04-25T10:20:16.757Z,43.5
2023-04-25T10:25:19.879Z,43.5
2023-04-25T10:30:19.807Z,43.6
2023-04-25T10:35:19.871Z,43.5
2023-04-25T10:40:19.792Z,43.4
2023-04-25T10:45:19.850Z,43.3
2023-04-25T10:50:19.877Z,43.3
2023-04-25T10:55:19.827Z,43.4
2023-04-25T11:00:19.905Z,43.3
2023-04-25T11:05:21.374Z,43.6
2023-04-25T11:10:16.886Z,43.7
2023-04-25T11:15:16.798Z,43.6
2023-04-25T11:20:19.987Z,43.6
2023-04-25T11:25:19.942Z,43.5
2023-04-25T11:30:19.952Z,43.5
2023-04-25T11:35:19.876Z,43.5
2023-04-25T11:40:20.109Z,43.5
2023-04-25T11:45:19.984Z,43.6
2023-04-25T11:50:19.920Z,43.6
2023-04-25T11:55:20.011Z,43.7
2023-04-25T12:00:19.872Z,44.2
2023-04-25T12:05:30.931Z,44.2
2023-04-25T12:10:17.088Z,44.1
2023-04-25T12:15:20.150Z,44.2
2023-04-25T12:20:20.019Z,44.2
2023-04-25T12:25:20.022Z,44.2
2023-04-25T12:30:19.952Z,44.3
2023-04-25T12:35:20.070Z,44.6
2023-04-25T12:40:20.085Z,45.0
2023-04-25T12:45:20.090Z,45.8
2023-04-25T12:50:20.154Z,46.5
2023-04-25T12:55:16.937Z,46.6
2023-04-25T13:00:17.064Z,46.5
2023-04-25T13:05:20.225Z,46.4
2023-04-25T13:10:20.133Z,46.5
2023-04-25T13:15:20.071Z,47.1
2023-04-25T13:20:20.211Z,47.2
2023-04-25T13:25:20.173Z,47.4
2023-04-25T13:30:20.162Z,47.8
2023-04-25T13:35:20.030Z,47.7
2023-04-25T13:40:20.143Z,47.7
2023-04-25T13:45:20.204Z,47.7
2023-04-25T13:50:16.954Z,47.7
2023-04-25T13:55:16.984Z,47.9
2023-04-25T14:00:20.459Z,48.0
2023-04-25T14:05:20.193Z,48.1
2023-04-25T14:10:20.217Z,48.4
2023-04-25T14:15:20.181Z,48.8
2023-04-25T14:20:20.162Z,49.1
2023-04-25T14:25:20.168Z,49.4
2023-04-25T14:30:20.226Z,49.7
2023-04-25T14:35:20.316Z,49.9
2023-04-25T14:40:17.130Z,50.1
2023-04-25T14:45:17.199Z,50.3
2023-04-25T14:50:20.308Z,50.5
2023-04-25T14:55:20.299Z,50.6
2023-04-25T15:00:20.228Z,50.9
2023-04-25T15:05:20.277Z,51.4
2023-04-25T15:10:20.396Z,51.9
2023-04-25T15:15:30.894Z,51.8
2023-04-25T15:20:20.295Z,51.9
2023-04-25T15:25:20.347Z,52.0
2023-04-25T15:30:20.257Z,52.6
2023-04-25T15:35:17.267Z,53.1
2023-04-25T15:40:17.224Z,53.6
2023-04-25T15:45:20.641Z,55.0
2023-04-25T15:50:20.337Z,54.7
2023-04-25T15:55:20.341Z,54.1
2023-04-25T16:00:20.444Z,54.8
2023-04-25T16:05:20.512Z,54.6
2023-04-25T16:10:20.325Z,53.9
2023-04-25T16:15:20.391Z,53.7
2023-04-25T16:20:20.328Z,53.8
2023-04-25T16:25:20.406Z,54.4
2023-04-25T16:30:17.302Z,55.1
2023-04-25T16:35:20.382Z,55.0
2023-04-25T16:40:20.394Z,55.5
2023-04-25T16:45:20.412Z,55.4
2023-04-25T16:50:20.363Z,55.3
2023-04-25T16:55:20.459Z,54.8
2023-04-25T17:00:20.426Z,54.9
2023-04-25T17:05:20.391Z,55.3
2023-04-25T17:10:20.449Z,55.3
2023-04-25T17:15:20.550Z,55.3
2023-04-25T17:20:17.380Z,55.3
2023-04-25T17:25:17.283Z,55.5
2023-04-25T17:30:20.475Z,55.6
2023-04-25T17:35:20.465Z,55.7
2023-04-25T17:40:20.499Z,55.9
2023-04-25T17:45:20.546Z,56.4
2023-04-25T17:50:20.516Z,56.8
2023-04-25T17:55:20.580Z,56.9
2023-04-25T18:00:20.425Z,57.1
2023-04-25T18:05:20.561Z,56.6
2023-04-25T18:10:20.429Z,56.2
2023-04-25T18:15:17.447Z,56.0
2023-04-25T18:20:17.417Z,56.3
2023-04-25T18:25:20.614Z,56.6
2023-04-25T18:30:20.508Z,56.6
2023-04-25T18:35:20.630Z,56.2
2023-04-25T18:40:20.505Z,56.0
2023-04-25T18:45:20.560Z,56.0
2023-04-25T18:50:20.576Z,55.5
2023-04-25T18:55:20.592Z,55.0
2023-04-25T19:00:20.845Z,54.3
2023-04-25T19:05:17.521Z,54.2
2023-04-25T19:10:17.573Z,54.2
2023-04-25T19:15:20.580Z,54.1
2023-04-25T19:20:20.546Z,53.8
2023-04-25T19:25:20.516Z,53.6
2023-04-25T19:30:18.587Z,53.6
2023-04-25T19:35:18.595Z,53.5
2023-04-25T19:40:18.697Z,53.4
2023-04-25T19:45:15.584Z,53.5
2023-04-25T19:50:15.750Z,53.5
2023-04-25T19:55:18.627Z,54.0
2023-04-25T20:00:19.945Z,54.3
2023-04-25T20:05:18.665Z,54.2
2023-04-25T20:10:19.878Z,54.1
2023-04-25T20:15:19.606Z,54.1
2023-04-25T20:20:16.533Z,54.2
2023-04-25T20:25:16.555Z,53.5
2023-04-25T20:30:19.743Z,53.4
2023-04-25T20:35:19.670Z,53.3
2023-04-25T20:40:19.648Z,53.0
2023-04-25T20:45:19.817Z,52.9
2023-04-25T20:50:19.682Z,52.9
2023-04-25T20:55:19.820Z,52.8
2023-04-25T21:00:19.849Z,52.6
2023-04-25T21:05:19.663Z,52.5
2023-04-25T21:10:19.780Z,52.2
2023-04-25T21:15:16.739Z,52.1
2023-04-25T21:20:19.849Z,51.8
2023-04-25T21:25:19.791Z,51.3
2023-04-25T21:30:22.357Z,51.0
2023-04-25T21:35:19.793Z,50.8
2023-04-25T21:40:19.728Z,50.7
2023-04-25T21:45:19.815Z,50.7
2023-04-25T21:50:19.934Z,50.5
2023-04-25T21:55:19.845Z,50.3
2023-04-25T22:00:19.795Z,50.1
2023-04-25T22:05:16.738Z,49.8
2023-04-25T22:10:16.707Z,49.3
2023-04-25T22:15:19.842Z,48.9
2023-04-25T22:20:19.758Z,48.7
2023-04-25T22:25:19.840Z,48.5
2023-04-25T22:30:19.852Z,48.4
2023-04-25T22:35:19.919Z,48.3
2023-04-25T22:40:19.852Z,48.4
2023-04-25T22:45:19.838Z,48.3
2023-04-25T22:50:19.824Z,48.2
2023-04-25T22:55:19.832Z,48.1
2023-04-25T23:00:16.867Z,48.0
2023-04-25T23:05:16.853Z,47.8
2023-04-25T23:10:19.819Z,47.6
2023-04-25T23:15:19.845Z,47.6
2023-04-25T23:20:19.866Z,47.5
2023-04-25T23:25:19.896Z,47.3
2023-04-25T23:30:19.984Z,47.2
2023-04-25T23:35:19.984Z,47.2
2023-04-25T23:40:19.867Z,47.0
2023-04-25T23:45:19.938Z,46.9
2023-04-25T23:50:19.908Z,46.8
2023-04-25T23:55:16.815Z,46.7
